Disclaimer

Please do not use the information listed here in-flight or in-navigation, as they are not provided to us by the airports but are provided by volunteers, so they might be outdated.

Search


Regions


Airport information page

Radio informations:
ROBERTS TWR - 118.3 MHz
Ground (GND) - 121.9 MHz
ROBERTS APP - 124.5 MHz
A/G VOICE RDO - 3452 MHz

Airport informations:
Latitude: 06° 14' 01.64" N
Longitude: 010° 21' 44.32" W
Elevation: 31 feet - 9 meters
Operating hours: N/A
Operating agency: Civil government, landing fees and diplomatic clearance may be required
Timezone: UTC 0
Fuel: Jet A1, without icing nhibitor.

100/130 MIL Spec, low lead, aviation gasoline (BLUE)

Runway information:
04/22 - 11000 x 150 feet< - >3353 x 46 meters

Recent METARs:
GLRB 130400Z 00000KT 9999 BKN013 FEW023CB 24/23 Q1009 RMK CB-N/NW
GLRB 130430Z 00000KT 9999 BKN013 FEW023CB 24/23 Q1009 RMK CB-N/NW
GLRB 130500Z 00000KT 9999 BKN013 FEW023CB 24/23 Q1010 RMK CB-NW

Airport on the map: